Map

Track Data

SID SEASON NUMBER BASIN SUBBASIN NAME ISO_TIME NATURE LAT LON WMO_WIND WMO_PRES WMO_AGENCY TRACK_TYPE DIST2LAND LANDFALL IFLAG USA_AGENCY USA_ATCF_ID USA_LAT USA_LON USA_RECORD USA_STATUS USA_WIND USA_PRES USA_SSHS USA_R34_NE USA_R34_SE USA_R34_SW USA_R34_NW USA_R50_NE USA_R50_SE USA_R50_SW USA_R50_NW USA_R64_NE USA_R64_SE USA_R64_SW USA_R64_NW USA_POCI USA_ROCI USA_RMW USA_EYE TOKYO_LAT TOKYO_LON TOKYO_GRADE TOKYO_WIND TOKYO_PRES TOKYO_R50_DIR TOKYO_R50_LONG TOKYO_R50_SHORT TOKYO_R30_DIR TOKYO_R30_LONG TOKYO_R30_SHORT TOKYO_LAND CMA_LAT CMA_LON CMA_CAT CMA_WIND CMA_PRES HKO_LAT HKO_LON HKO_CAT HKO_WIND HKO_PRES NEWDELHI_LAT NEWDELHI_LON NEWDELHI_GRADE NEWDELHI_WIND NEWDELHI_PRES NEWDELHI_CI NEWDELHI_DP NEWDELHI_POCI REUNION_LAT REUNION_LON REUNION_TYPE REUNION_WIND REUNION_PRES REUNION_TNUM REUNION_CI REUNION_RMW REUNION_R34_NE REUNION_R34_SE REUNION_R34_SW REUNION_R34_NW REUNION_R50_NE REUNION_R50_SE REUNION_R50_SW REUNION_R50_NW REUNION_R64_NE REUNION_R64_SE REUNION_R64_SW REUNION_R64_NW BOM_LAT BOM_LON BOM_TYPE BOM_WIND BOM_PRES BOM_TNUM BOM_CI BOM_RMW BOM_R34_NE BOM_R34_SE BOM_R34_SW BOM_R34_NW BOM_R50_NE BOM_R50_SE BOM_R50_SW BOM_R50_NW BOM_R64_NE BOM_R64_SE BOM_R64_SW BOM_R64_NW BOM_ROCI BOM_POCI BOM_EYE BOM_POS_METHOD BOM_PRES_METHOD NADI_LAT NADI_LON NADI_CAT NADI_WIND NADI_PRES WELLINGTON_LAT WELLINGTON_LON WELLINGTON_WIND WELLINGTON_PRES DS824_LAT DS824_LON DS824_STAGE DS824_WIND DS824_PRES TD9636_LAT TD9636_LON TD9636_STAGE TD9636_WIND TD9636_PRES TD9635_LAT TD9635_LON TD9635_WIND TD9635_PRES TD9635_ROCI NEUMANN_LAT NEUMANN_LON NEUMANN_CLASS NEUMANN_WIND NEUMANN_PRES MLC_LAT MLC_LON MLC_CLASS MLC_WIND MLC_PRES USA_GUST BOM_GUST BOM_GUST_PER REUNION_GUST REUNION_GUST_PER USA_SEAHGT USA_SEARAD_NE USA_SEARAD_SE USA_SEARAD_SW USA_SEARAD_NW STORM_SPEED STORM_DIR
1918069S14153 1918 17 SP EA NOT_NAMED 1918-03-09 23:00:00 NR -13.6000 153.400 main 446 439 __________O___ -1 -13.6000 153.400 7 13 242
1918069S14153 1918 17 SP EA NOT_NAMED 1918-03-10 00:00:00 NR -13.7004 153.206 main 440 430 __________P___ -1 -13.7004 153.206 7 13 242
1918069S14153 1918 17 SP EA NOT_NAMED 1918-03-10 03:00:00 NR -14.0007 152.622 main 433 433 __________P___ -1 -14.0007 152.622 7 13 242
1918069S14153 1918 17 SP EA NOT_NAMED 1918-03-10 06:00:00 NR -14.3005 152.029 main 437 437 __________P___ -1 -14.3005 152.029 7 13 243
1918069S14153 1918 17 SP EA NOT_NAMED 1918-03-10 09:00:00 NR -14.6001 151.419 main 450 447 __________P___ -1 -14.6001 151.419 7 13 243
1918069S14153 1918 17 SP EA NOT_NAMED 1918-03-10 11:00:00 NR -14.8000 151.000 main 463 462 __________O___ -1 -14.8000 151.000 7 14 244
1918069S14153 1918 17 SP EA NOT_NAMED 1918-03-10 12:00:00 NR -14.9000 150.787 main 472 471 __________P___ -1 -14.9000 150.787 7 14 244
1918069S14153 1918 17 SP EA NOT_NAMED 1918-03-10 15:00:00 NR -15.1966 150.141 main 491 419 __________P___ -1 -15.1966 150.141 7 14 245
1918069S14153 1918 17 SP EA NOT_NAMED 1918-03-10 18:00:00 NR -15.4806 149.513 main 419 361 __________P___ -1 -15.4806 149.513 7 13 245
1918069S14153 1918 17 SP EA NOT_NAMED 1918-03-10 21:00:00 NR -15.7424 148.937 main 351 313 __________P___ -1 -15.7424 148.937 7 12 244
1918069S14153 1918 17 SP EA NOT_NAMED 1918-03-10 23:00:00 NR -15.9000 148.600 main 313 299 __________O___ -1 -15.9000 148.600 7 10 244
1918069S14153 1918 17 SP EA NOT_NAMED 1918-03-11 00:00:00 NR -15.9713 148.456 main 299 251 __________P___ -1 -15.9713 148.456 7 8 242
1918069S14153 1918 17 SP EA NOT_NAMED 1918-03-11 03:00:00 NR -16.1637 148.084 main 251 217 __________P___ -1 -16.1637 148.084 7 7 241
1918069S14153 1918 17 SP EA NOT_NAMED 1918-03-11 06:00:00 NR -16.3336 147.776 main 217 179 __________P___ -1 -16.3336 147.776 7 7 240
1918069S14153 1918 17 SP EA NOT_NAMED 1918-03-11 09:00:00 NR -16.4933 147.493 main 179 155 __________P___ -1 -16.4933 147.493 7 6 240
1918069S14153 1918 17 SP EA NOT_NAMED 1918-03-11 11:00:00 NR -16.6000 147.300 main 155 145 __________O___ -1 -16.6000 147.300 7 7 240
1918069S14153 1918 17 SP EA NOT_NAMED 1918-03-11 12:00:00 NR -16.6583 147.189 main 140 108 __________P___ -1 -16.6583 147.189 7 7 242
1918069S14153 1918 17 SP EA NOT_NAMED 1918-03-11 15:00:00 NR -16.8331 146.852 main 108 61 __________P___ -1 -16.8331 146.852 7 7 242
1918069S14153 1918 17 SP EA NOT_NAMED 1918-03-11 18:00:00 NR -17.0080 146.506 main 61 24 __________P___ -1 -17.0080 146.506 7 8 243
1918069S14153 1918 17 SP EA NOT_NAMED 1918-03-11 21:00:00 NR -17.1831 146.147 main 15 0 __________P___ -1 -17.1831 146.147 7 8 243
1918069S14153 1918 17 SP EA NOT_NAMED 1918-03-11 23:00:00 NR -17.3000 145.900 main 0 0 __________O___ -1 -17.3000 145.900 7 8 244
1918069S14153 1918 17 SP EA NOT_NAMED 1918-03-12 00:00:00 NR -17.3582 145.777 main 0 0 __________P___ -1 -17.3582 145.777 7 8 244
1918069S14153 1918 17 SP EA NOT_NAMED 1918-03-12 03:00:00 NR -17.5330 145.398 main 0 0 __________P___ -1 -17.5330 145.398 7 8 245
1918069S14153 1918 17 SP EA NOT_NAMED 1918-03-12 06:00:00 NR -17.7079 145.003 main 0 0 __________P___ -1 -17.7079 145.003 7 8 246
1918069S14153 1918 17 SP EA NOT_NAMED 1918-03-12 09:00:00 NR -17.8831 144.589 main 0 0 __________P___ -1 -17.8831 144.589 7 9 246
1918069S14153 1918 17 SP EA NOT_NAMED 1918-03-12 11:00:00 NR -18.0000 144.300 main 0 0 __________O___ -1 -18.0000 144.300 7 9 249
1918069S14153 1918 17 SP EA NOT_NAMED 1918-03-12 12:00:00 NR -18.0411 144.148 main 0 0 __________P___ -1 -18.0411 144.148 7 9 255
1918069S14153 1918 17 SP EA NOT_NAMED 1918-03-12 15:00:00 NR -18.1575 143.673 main 0 0 __________P___ -1 -18.1575 143.673 7 10 254
1918069S14153 1918 17 SP EA NOT_NAMED 1918-03-12 18:00:00 NR -18.2970 143.186 main 0 0 __________P___ -1 -18.2970 143.186 7 10 249
1918069S14153 1918 17 SP EA NOT_NAMED 1918-03-12 21:00:00 NR -18.5035 142.706 main 0 0 __________P___ -1 -18.5035 142.706 7 10 242
1918069S14153 1918 17 SP EA NOT_NAMED 1918-03-12 23:00:00 NR -18.7000 142.400 main 0 0 __________O___ -1 -18.7000 142.400 7 11 235
1918069S14153 1918 17 SP EA NOT_NAMED 1918-03-13 00:00:00 NR -18.8146 142.241 main 0 0 __________P___ -1 -18.8146 142.241 7 12 228
1918069S14153 1918 17 SP EA NOT_NAMED 1918-03-13 03:00:00 NR -19.2300 141.774 main 0 0 __________P___ -1 -19.2300 141.774 7 13 222
1918069S14153 1918 17 SP EA NOT_NAMED 1918-03-13 06:00:00 NR -19.7452 141.345 main 0 0 __________P___ -1 -19.7452 141.345 7 14 214
1918069S14153 1918 17 SP EA NOT_NAMED 1918-03-13 09:00:00 NR -20.3508 140.985 main 0 0 __________P___ -1 -20.3508 140.985 7 14 206
1918069S14153 1918 17 SP EA NOT_NAMED 1918-03-13 11:00:00 NR -20.8000 140.800 main 0 0 __________O___ -1 -20.8000 140.800 7 15 199
1918069S14153 1918 17 SP EA NOT_NAMED 1918-03-13 12:00:00 NR -21.0372 140.727 main 0 0 __________P___ -1 -21.0372 140.727 7 15 192
1918069S14153 1918 17 SP EA NOT_NAMED 1918-03-13 15:00:00 NR -21.7921 140.577 main 0 0 __________P___ -1 -21.7921 140.577 7 16 187
1918069S14153 1918 17 SP EA NOT_NAMED 1918-03-13 18:00:00 NR -22.5973 140.511 main 0 0 __________P___ -1 -22.5973 140.511 7 17 183
1918069S14153 1918 17 SP EA NOT_NAMED 1918-03-13 21:00:00 NR -23.4341 140.496 main 0 0 __________P___ -1 -23.4341 140.496 7 17 181
1918069S14153 1918 17 SP EA NOT_NAMED 1918-03-13 23:00:00 NR -24.0000 140.500 main 0 __________O___ -1 -24.0000 140.500 7 17 177

Digital Typhoon Data and Search

About IBTrACS Database

This database is a web-friendly format of International Best Track Archive for Climate Stewardship (IBTrACS), a global best track data archive curated by NOAA dating back to 1842.

Updated: 2021-11-26